createdAt,value
2018-11-10T00:01:59.952Z,81.85
2018-11-10T00:04:31.558Z,82.03
2018-11-10T00:06:59.313Z,81.86
2018-11-10T00:09:27.040Z,82.47
2018-11-10T00:11:54.857Z,82.37
2018-11-10T00:14:22.578Z,82.21
2018-11-10T00:16:50.292Z,82.45
2018-11-10T00:19:18.067Z,82.40
2018-11-10T00:21:45.807Z,83.55
2018-11-10T00:24:13.558Z,83.71
2018-11-10T00:26:41.298Z,83.60
2018-11-10T00:29:09.015Z,83.47
2018-11-10T00:31:36.778Z,84.20
2018-11-10T00:34:05.011Z,84.91
2018-11-10T00:36:32.767Z,84.75
2018-11-10T00:39:00.539Z,84.28
2018-11-10T00:41:28.299Z,84.56
2018-11-10T00:43:56.033Z,84.78
2018-11-10T00:46:23.854Z,85.55
2018-11-10T00:48:51.590Z,85.02
2018-11-10T00:51:19.374Z,84.69
2018-11-10T00:53:47.126Z,85.62
2018-11-10T00:56:14.879Z,85.10
2018-11-10T00:58:42.630Z,85.22
2018-11-10T01:01:10.355Z,85.08
2018-11-10T01:03:38.195Z,84.78
2018-11-10T01:06:05.951Z,84.65
2018-11-10T01:08:33.683Z,85.64
2018-11-10T01:11:01.397Z,85.18
2018-11-10T01:13:29.203Z,84.26
2018-11-10T01:15:56.929Z,84.39
2018-11-10T01:18:24.651Z,85.20
2018-11-10T01:20:52.394Z,86.34
2018-11-10T01:23:20.123Z,86.36
2018-11-10T01:25:47.867Z,86.58
2018-11-10T01:28:15.610Z,86.68
2018-11-10T01:30:43.347Z,86.63
2018-11-10T01:33:11.088Z,86.30
2018-11-10T01:35:38.826Z,86.33
2018-11-10T01:38:06.614Z,86.04
2018-11-10T01:40:34.351Z,85.12
2018-11-10T01:43:02.103Z,85.37
2018-11-10T01:45:29.846Z,87.13
2018-11-10T01:47:57.594Z,87.53
2018-11-10T01:50:25.310Z,87.21
2018-11-10T01:52:53.026Z,87.08
2018-11-10T01:55:20.786Z,86.92
2018-11-10T01:57:48.521Z,85.46
2018-11-10T02:00:17.441Z,86.15
2018-11-10T02:02:45.913Z,85.87
2018-11-10T02:05:14.070Z,85.19
2018-11-10T02:07:41.801Z,85.32
2018-11-10T02:10:10.443Z,85.57
2018-11-10T02:12:38.236Z,87.05
2018-11-10T02:15:08.233Z,87.48
2018-11-10T02:17:35.964Z,87.44
2018-11-10T02:20:04.499Z,86.20
2018-11-10T02:22:32.249Z,85.95
2018-11-10T02:25:00.070Z,86.08
2018-11-10T02:27:27.857Z,87.02
2018-11-10T02:29:55.641Z,86.82
2018-11-10T02:32:23.387Z,87.31
2018-11-10T02:34:51.849Z,86.84
2018-11-10T02:37:19.591Z,86.52
2018-11-10T02:39:47.325Z,87.93
2018-11-10T02:42:15.074Z,86.92
2018-11-10T02:44:42.798Z,88.15
2018-11-10T02:47:10.515Z,88.39
2018-11-10T02:49:38.242Z,88.03
2018-11-10T02:52:05.998Z,88.00
2018-11-10T02:54:33.734Z,87.29
2018-11-10T02:57:01.466Z,86.86
2018-11-10T02:59:29.209Z,86.52
2018-11-10T03:01:56.934Z,87.50
2018-11-10T03:04:24.681Z,88.17
2018-11-10T03:06:52.415Z,89.16
2018-11-10T03:09:20.146Z,88.08
2018-11-10T03:11:47.886Z,88.82
2018-11-10T03:14:15.684Z,87.68
2018-11-10T03:16:43.415Z,87.37
2018-11-10T03:19:11.152Z,88.33
2018-11-10T03:21:38.886Z,88.81
2018-11-10T03:24:06.611Z,88.51
2018-11-10T03:26:34.338Z,88.60
2018-11-10T03:29:02.058Z,88.31
2018-11-10T03:31:29.786Z,89.35
2018-11-10T03:33:57.504Z,89.32
2018-11-10T03:36:25.256Z,88.99
2018-11-10T03:38:52.990Z,88.93
2018-11-10T03:41:20.760Z,89.87
2018-11-10T03:43:48.486Z,90.12
2018-11-10T03:46:16.263Z,89.59
2018-11-10T03:48:43.991Z,89.64
2018-11-10T03:51:11.782Z,90.23
2018-11-10T03:53:39.979Z,90.05
2018-11-10T03:56:08.037Z,90.30
2018-11-10T03:58:35.818Z,90.12
2018-11-10T04:01:03.655Z,89.98
2018-11-10T04:03:31.467Z,90.03
2018-11-10T04:05:59.211Z,89.65
2018-11-10T04:08:26.925Z,89.84
2018-11-10T04:10:54.656Z,90.05
2018-11-10T04:13:22.406Z,89.84
2018-11-10T04:15:50.126Z,89.07
2018-11-10T04:18:17.838Z,89.29
2018-11-10T04:20:45.567Z,90.14
2018-11-10T04:23:13.279Z,90.65
2018-11-10T04:25:41.011Z,89.24
2018-11-10T04:28:08.735Z,88.45
2018-11-10T04:30:36.460Z,89.04
2018-11-10T04:33:04.474Z,89.07
2018-11-10T04:35:32.182Z,89.03
2018-11-10T04:37:59.918Z,89.50
2018-11-10T04:40:27.645Z,88.99
2018-11-10T04:42:55.417Z,88.27
2018-11-10T04:45:23.137Z,89.09
2018-11-10T04:47:50.902Z,89.92
2018-11-10T04:50:18.880Z,89.88
2018-11-10T04:52:46.600Z,89.17
2018-11-10T04:55:14.327Z,90.01
2018-11-10T04:57:42.054Z,90.58
2018-11-10T05:00:12.463Z,89.53
2018-11-10T05:02:40.406Z,88.35
2018-11-10T05:05:08.266Z,88.92
2018-11-10T05:07:36.090Z,87.93
2018-11-10T05:10:03.946Z,88.44
2018-11-10T05:12:31.677Z,88.99
2018-11-10T05:14:59.419Z,89.47
2018-11-10T05:17:27.142Z,89.02
2018-11-10T05:19:54.868Z,89.91
2018-11-10T05:22:22.918Z,89.61
2018-11-10T05:24:50.654Z,89.47
2018-11-10T05:27:18.401Z,89.37
2018-11-10T05:29:46.135Z,88.50
2018-11-10T05:32:13.878Z,87.69
2018-11-10T05:34:41.604Z,88.17
2018-11-10T05:37:09.343Z,88.73
2018-11-10T05:39:37.058Z,88.93
2018-11-10T05:42:04.806Z,89.32
2018-11-10T05:44:32.524Z,89.47
2018-11-10T05:47:00.246Z,89.05
2018-11-10T05:49:27.962Z,88.32
2018-11-10T05:51:55.698Z,88.15
2018-11-10T05:54:23.402Z,88.56
2018-11-10T05:56:51.158Z,89.34
2018-11-10T05:59:18.930Z,88.80
2018-11-10T06:01:46.692Z,89.34
2018-11-10T06:04:14.399Z,89.53
2018-11-10T06:06:42.120Z,89.33
2018-11-10T06:09:10.966Z,88.40
2018-11-10T06:11:39.982Z,88.13
2018-11-10T06:14:07.893Z,88.44
2018-11-10T06:16:35.856Z,88.71
2018-11-10T06:19:03.599Z,88.49
2018-11-10T06:21:31.330Z,88.41
2018-11-10T06:23:59.059Z,88.23
2018-11-10T06:26:27.319Z,88.66
2018-11-10T06:28:55.055Z,88.07
2018-11-10T06:31:22.771Z,87.56
2018-11-10T06:33:50.554Z,87.31
2018-11-10T06:36:18.481Z,87.83
2018-11-10T06:38:46.234Z,88.42
2018-11-10T06:41:13.975Z,88.08
2018-11-10T06:43:41.724Z,87.49
2018-11-10T06:46:09.443Z,87.67
2018-11-10T06:48:37.194Z,88.26
2018-11-10T06:51:05.015Z,86.82
2018-11-10T06:53:32.743Z,87.37
2018-11-10T06:56:00.447Z,87.37
2018-11-10T06:58:28.178Z,87.83
2018-11-10T07:00:55.944Z,87.53
2018-11-10T07:03:23.715Z,87.13
2018-11-10T07:05:51.454Z,86.83
2018-11-10T07:08:19.910Z,86.41
2018-11-10T07:10:48.081Z,86.35
2018-11-10T07:13:15.836Z,86.23
2018-11-10T07:15:43.610Z,86.09
2018-11-10T07:18:11.446Z,83.67
2018-11-10T07:20:39.105Z,84.58
2018-11-10T07:23:06.843Z,84.97
2018-11-10T07:25:34.607Z,85.26
2018-11-10T07:28:02.364Z,85.34
2018-11-10T07:30:30.099Z,84.90
2018-11-10T07:32:57.843Z,85.01
2018-11-10T07:35:25.587Z,85.06
2018-11-10T07:37:53.319Z,84.81
2018-11-10T07:40:21.081Z,85.15
2018-11-10T07:42:48.886Z,84.02
2018-11-10T07:45:16.621Z,83.55
2018-11-10T07:47:45.277Z,83.46
2018-11-10T07:50:13.028Z,84.00
2018-11-10T07:52:41.403Z,83.36
2018-11-10T07:55:10.630Z,82.96
2018-11-10T07:57:38.377Z,81.91
2018-11-10T08:00:08.926Z,82.81
2018-11-10T08:02:36.662Z,83.17
2018-11-10T08:05:04.923Z,82.30
2018-11-10T08:07:32.716Z,83.32
2018-11-10T08:10:00.518Z,82.60
2018-11-10T08:12:28.229Z,83.32
2018-11-10T08:14:55.966Z,81.52
2018-11-10T08:17:23.692Z,81.52
2018-11-10T08:19:51.442Z,81.33
2018-11-10T08:22:19.212Z,82.09
2018-11-10T08:24:46.940Z,82.33
2018-11-10T08:27:14.679Z,81.63
2018-11-10T08:29:42.398Z,81.56
2018-11-10T08:32:10.123Z,82.21
2018-11-10T08:34:37.866Z,82.65
2018-11-10T08:37:05.682Z,83.13
2018-11-10T08:39:33.439Z,81.97
2018-11-10T08:42:01.203Z,82.00
2018-11-10T08:44:28.930Z,82.74
2018-11-10T08:46:56.698Z,80.42
2018-11-10T08:49:24.517Z,81.69
2018-11-10T08:51:53.171Z,80.63
2018-11-10T08:54:20.947Z,80.81
2018-11-10T08:56:48.741Z,79.60
2018-11-10T08:59:16.549Z,78.89
2018-11-10T09:01:44.290Z,78.58
2018-11-10T09:04:12.027Z,79.03
2018-11-10T09:06:39.783Z,77.90
2018-11-10T09:09:09.022Z,78.10
2018-11-10T09:11:36.944Z,77.96
2018-11-10T09:14:04.925Z,77.75
2018-11-10T09:16:32.671Z,79.14
2018-11-10T09:19:00.415Z,77.59
2018-11-10T09:21:28.259Z,79.01
2018-11-10T09:23:55.928Z,78.95
2018-11-10T09:26:24.198Z,78.18
2018-11-10T09:28:51.953Z,79.52
2018-11-10T09:31:19.695Z,79.21
2018-11-10T09:33:47.425Z,79.23
2018-11-10T09:36:15.168Z,78.49
2018-11-10T09:38:42.955Z,78.72
2018-11-10T09:41:10.722Z,78.25
2018-11-10T09:43:38.447Z,78.58
2018-11-10T09:46:06.402Z,78.77
2018-11-10T09:48:34.186Z,78.29
2018-11-10T09:51:02.006Z,78.72
2018-11-10T09:53:29.769Z,79.01
2018-11-10T09:55:57.534Z,78.61
2018-11-10T09:58:25.350Z,78.38
2018-11-10T10:00:53.148Z,78.58
2018-11-10T10:03:20.891Z,79.04
2018-11-10T10:05:48.643Z,79.13
2018-11-10T10:08:16.397Z,79.04
2018-11-10T10:10:44.158Z,79.43
2018-11-10T10:13:11.919Z,79.26
2018-11-10T10:15:39.654Z,79.26
2018-11-10T10:18:07.417Z,78.81
2018-11-10T10:20:35.183Z,79.45
2018-11-10T10:23:02.971Z,79.14
2018-11-10T10:25:30.710Z,79.09
2018-11-10T10:27:58.463Z,78.69
2018-11-10T10:30:26.499Z,78.52
2018-11-10T10:32:54.266Z,78.92
2018-11-10T10:35:22.162Z,78.72
2018-11-10T10:37:50.634Z,79.06
2018-11-10T10:40:18.568Z,79.97
2018-11-10T10:42:46.892Z,79.92
2018-11-10T10:45:16.114Z,80.42
2018-11-10T10:47:44.238Z,79.76
2018-11-10T10:50:15.231Z,79.84
2018-11-10T10:52:43.009Z,79.26
2018-11-10T10:55:12.866Z,78.84
2018-11-10T10:57:40.926Z,79.12
2018-11-10T11:00:15.879Z,79.39
2018-11-10T11:02:49.123Z,79.70
2018-11-10T11:05:23.172Z,78.93
2018-11-10T11:07:51.049Z,78.87
2018-11-10T11:10:18.922Z,78.24
2018-11-10T11:12:46.641Z,79.06
2018-11-10T11:15:14.415Z,79.18
2018-11-10T11:17:42.132Z,79.34
2018-11-10T11:20:10.159Z,79.84
2018-11-10T11:22:37.899Z,79.50
2018-11-10T11:25:05.832Z,79.78
2018-11-10T11:27:33.597Z,79.66
2018-11-10T11:30:01.822Z,79.61
2018-11-10T11:32:29.558Z,78.49
2018-11-10T11:34:57.308Z,78.23
2018-11-10T11:37:25.052Z,77.69
2018-11-10T11:39:52.827Z,77.96
2018-11-10T11:42:21.862Z,77.75
2018-11-10T11:44:49.610Z,77.81
2018-11-10T11:47:17.382Z,77.98
2018-11-10T11:49:45.182Z,77.72
2018-11-10T11:52:12.897Z,77.32
2018-11-10T11:54:40.706Z,77.40
2018-11-10T11:57:08.443Z,77.77
2018-11-10T11:59:36.174Z,78.17
2018-11-10T12:02:04.048Z,77.68
2018-11-10T12:04:31.828Z,78.04
2018-11-10T12:06:59.594Z,77.83
2018-11-10T12:09:27.410Z,78.20
2018-11-10T12:11:55.195Z,77.89
2018-11-10T12:14:22.910Z,78.63
2018-11-10T12:16:50.736Z,77.79
2018-11-10T12:19:18.496Z,77.99
2018-11-10T12:21:46.284Z,76.91
2018-11-10T12:24:14.016Z,77.70
2018-11-10T12:26:41.776Z,76.76
2018-11-10T12:29:09.591Z,77.33
2018-11-10T12:31:37.391Z,76.83
2018-11-10T12:34:05.622Z,77.99
2018-11-10T12:36:33.418Z,78.32
2018-11-10T12:39:01.168Z,78.28
2018-11-10T12:41:28.907Z,76.65
2018-11-10T12:43:56.674Z,77.36
2018-11-10T12:46:24.424Z,76.47
2018-11-10T12:48:52.162Z,76.40
2018-11-10T12:51:19.913Z,75.96
2018-11-10T12:53:47.666Z,75.61
2018-11-10T12:56:15.403Z,76.27
2018-11-10T12:58:43.143Z,76.36
2018-11-10T13:01:10.911Z,75.43
2018-11-10T13:03:38.633Z,74.86
2018-11-10T13:06:06.500Z,75.50
2018-11-10T13:08:34.271Z,75.65
2018-11-10T13:11:02.096Z,75.77
2018-11-10T13:13:29.811Z,75.95
2018-11-10T13:15:57.828Z,76.72
2018-11-10T13:18:25.588Z,76.49
2018-11-10T13:20:53.375Z,75.59
2018-11-10T13:23:21.081Z,70.25
2018-11-10T13:25:48.840Z,68.72
2018-11-10T13:28:16.606Z,70.39
2018-11-10T13:30:44.393Z,72.79
2018-11-10T13:33:12.126Z,72.93
2018-11-10T13:35:39.915Z,72.77
2018-11-10T13:38:07.660Z,71.74
2018-11-10T13:40:35.417Z,72.64
2018-11-10T13:43:03.199Z,74.98
2018-11-10T13:45:30.951Z,74.16
2018-11-10T13:47:58.691Z,74.92
2018-11-10T13:50:26.453Z,75.65
2018-11-10T13:52:54.393Z,76.04
2018-11-10T13:55:22.013Z,75.78
2018-11-10T13:57:49.777Z,74.28
2018-11-10T14:00:18.344Z,74.14
2018-11-10T14:02:46.125Z,74.55
2018-11-10T14:05:14.411Z,74.30
2018-11-10T14:07:42.222Z,75.06
2018-11-10T14:10:11.757Z,74.57
2018-11-10T14:12:40.280Z,74.94
2018-11-10T14:15:08.113Z,76.58
2018-11-10T14:17:35.837Z,76.33
2018-11-10T14:20:04.431Z,75.89
2018-11-10T14:22:32.187Z,77.45
2018-11-10T14:24:59.915Z,77.80
2018-11-10T14:27:27.675Z,76.79
2018-11-10T14:29:55.477Z,77.53
2018-11-10T14:32:23.314Z,77.34
2018-11-10T14:34:51.085Z,77.00
2018-11-10T14:37:18.798Z,78.73
2018-11-10T14:39:46.526Z,78.38
2018-11-10T14:42:14.383Z,77.70
2018-11-10T14:44:42.158Z,78.32
2018-11-10T14:47:09.902Z,79.15
2018-11-10T14:49:37.634Z,79.40
2018-11-10T14:52:05.706Z,80.24
2018-11-10T14:54:33.479Z,80.08
2018-11-10T14:57:01.239Z,80.21
2018-11-10T14:59:28.970Z,80.35
2018-11-10T15:01:56.725Z,80.63
2018-11-10T15:04:24.591Z,80.71
2018-11-10T15:06:52.331Z,81.29
2018-11-10T15:09:20.073Z,81.13
2018-11-10T15:11:47.957Z,81.52
2018-11-10T15:14:15.591Z,81.76
2018-11-10T15:16:43.322Z,81.80
2018-11-10T15:19:11.114Z,81.63
2018-11-10T15:27:06.115Z,82.55
2018-11-10T15:29:33.873Z,82.34
2018-11-10T15:32:01.627Z,82.57
2018-11-10T15:34:29.354Z,82.63
2018-11-10T15:36:57.212Z,83.03
2018-11-10T15:39:24.951Z,82.90
2018-11-10T15:41:52.683Z,83.19
2018-11-10T15:44:20.395Z,83.16
2018-11-10T15:46:48.132Z,82.97
2018-11-10T15:49:15.890Z,83.16
2018-11-10T15:51:43.683Z,83.42
2018-11-10T15:54:11.411Z,83.07
2018-11-10T15:56:39.215Z,83.51
2018-11-10T15:59:07.991Z,83.25
2018-11-10T16:01:35.730Z,83.69
2018-11-10T16:04:03.486Z,84.08
2018-11-10T16:06:31.202Z,84.08
2018-11-10T16:08:58.977Z,84.46
2018-11-10T16:11:26.702Z,84.80
2018-11-10T16:13:54.426Z,84.31
2018-11-10T16:16:22.190Z,84.42
2018-11-10T16:18:49.922Z,84.54
2018-11-10T16:21:17.638Z,83.81
2018-11-10T16:23:45.376Z,83.63
2018-11-10T16:26:13.094Z,82.84
2018-11-10T16:28:40.857Z,81.96
2018-11-10T16:31:08.710Z,82.07
2018-11-10T16:33:36.531Z,81.47
2018-11-10T16:36:04.329Z,81.39
2018-11-10T16:38:32.062Z,81.21
2018-11-10T16:40:59.815Z,81.42
2018-11-10T16:43:27.558Z,81.85
2018-11-10T16:45:55.287Z,81.59
2018-11-10T16:48:23.022Z,82.05
2018-11-10T16:50:50.909Z,81.78
2018-11-10T16:53:18.666Z,81.91
2018-11-10T16:55:49.714Z,81.55
2018-11-10T16:58:17.535Z,81.29
2018-11-10T17:00:45.289Z,81.07
2018-11-10T17:03:13.023Z,81.41
2018-11-10T17:05:40.739Z,81.76
2018-11-10T17:08:08.475Z,82.21
2018-11-10T17:10:36.195Z,81.72
2018-11-10T17:13:04.635Z,82.77
2018-11-10T17:15:32.422Z,83.71
2018-11-10T17:18:00.150Z,83.71
2018-11-10T17:20:27.896Z,83.17
2018-11-10T17:22:55.625Z,83.26
2018-11-10T17:25:23.355Z,83.94
2018-11-10T17:27:51.087Z,84.23
2018-11-10T17:30:20.218Z,83.91
2018-11-10T17:32:47.898Z,83.22
2018-11-10T17:35:15.711Z,82.79
2018-11-10T17:37:43.605Z,82.79
2018-11-10T17:40:12.223Z,83.84
2018-11-10T17:42:39.886Z,82.90
2018-11-10T17:45:09.743Z,83.40
2018-11-10T17:47:38.515Z,83.17
2018-11-10T17:50:08.097Z,83.83
2018-11-10T17:52:35.959Z,83.35
2018-11-10T17:55:03.747Z,83.23
2018-11-10T17:57:31.568Z,83.03
2018-11-10T17:59:59.270Z,82.85
2018-11-10T18:02:27.018Z,83.11
2018-11-10T18:04:54.789Z,82.90
2018-11-10T18:07:22.549Z,83.53
2018-11-10T18:09:50.326Z,83.23
2018-11-10T18:12:18.079Z,82.97
2018-11-10T18:14:45.806Z,83.31
2018-11-10T18:17:13.548Z,83.17
2018-11-10T18:19:41.305Z,82.89
2018-11-10T18:22:09.179Z,83.37
2018-11-10T18:24:36.930Z,82.23
2018-11-10T18:27:04.762Z,83.00
2018-11-10T18:29:32.502Z,83.89
2018-11-10T18:32:00.250Z,84.29
2018-11-10T18:34:28.031Z,84.82
2018-11-10T18:36:55.782Z,84.57
2018-11-10T18:39:27.708Z,84.46
2018-11-10T18:41:55.498Z,85.36
2018-11-10T18:44:23.279Z,84.97
2018-11-10T18:46:51.135Z,85.12
2018-11-10T18:49:18.862Z,85.30
2018-11-10T18:51:46.638Z,85.92
2018-11-10T18:54:14.546Z,85.91
2018-11-10T18:56:42.290Z,85.85
2018-11-10T18:59:10.067Z,85.85
2018-11-10T19:01:37.883Z,85.82
2018-11-10T19:04:05.852Z,86.03
2018-11-10T19:06:33.719Z,85.99
2018-11-10T19:09:01.471Z,86.37
2018-11-10T19:11:29.291Z,86.21
2018-11-10T19:13:57.035Z,87.13
2018-11-10T19:16:24.802Z,87.02
2018-11-10T19:18:52.604Z,86.62
2018-11-10T19:21:20.406Z,86.40
2018-11-10T19:23:48.363Z,86.94
2018-11-10T19:26:19.290Z,87.14
2018-11-10T19:28:51.776Z,86.66
2018-11-10T19:31:20.446Z,86.71
2018-11-10T19:33:48.221Z,86.44
2018-11-10T19:36:15.982Z,86.36
2018-11-10T19:38:43.770Z,87.08
2018-11-10T19:41:11.511Z,86.86
2018-11-10T19:43:39.283Z,86.15
2018-11-10T19:46:07.082Z,86.75
2018-11-10T19:48:34.843Z,86.52
2018-11-10T19:51:07.321Z,87.19
2018-11-10T19:53:34.894Z,86.52
2018-11-10T19:56:02.645Z,85.90
2018-11-10T19:58:30.385Z,86.47
2018-11-10T20:00:58.140Z,85.02
2018-11-10T20:03:25.883Z,85.35
2018-11-10T20:05:53.647Z,85.96
2018-11-10T20:08:21.391Z,86.62
2018-11-10T20:10:55.492Z,86.49
2018-11-10T20:13:27.028Z,86.10
2018-11-10T20:15:54.846Z,86.45
2018-11-10T20:18:22.607Z,87.29
2018-11-10T20:20:50.326Z,87.29
2018-11-10T20:23:18.065Z,87.05
2018-11-10T20:25:45.807Z,87.25
2018-11-10T20:28:13.683Z,86.96
2018-11-10T20:30:41.468Z,87.58
2018-11-10T20:33:09.199Z,87.78
2018-11-10T20:35:36.929Z,87.66
2018-11-10T20:38:04.819Z,86.42
2018-11-10T20:40:32.566Z,85.61
2018-11-10T20:43:00.311Z,86.61
2018-11-10T20:45:28.035Z,86.42
2018-11-10T20:47:55.784Z,85.90
2018-11-10T20:50:23.528Z,86.37
2018-11-10T20:52:51.286Z,86.54
2018-11-10T20:55:19.034Z,87.40
2018-11-10T20:57:46.763Z,86.91
2018-11-10T21:00:15.982Z,86.27
2018-11-10T21:02:44.023Z,86.16
2018-11-10T21:05:12.352Z,85.96
2018-11-10T21:07:40.122Z,86.42
2018-11-10T21:10:10.750Z,87.14
2018-11-10T21:12:38.544Z,87.46
2018-11-10T21:15:06.975Z,87.63
2018-11-10T21:17:34.796Z,86.56
2018-11-10T21:20:02.845Z,85.83
2018-11-10T21:22:30.530Z,85.31
2018-11-10T21:24:58.267Z,86.29
2018-11-10T21:27:25.994Z,86.37
2018-11-10T21:29:53.746Z,86.08
2018-11-10T21:32:21.471Z,87.10
2018-11-10T21:34:49.212Z,87.87
2018-11-10T21:37:16.944Z,87.20
2018-11-10T21:39:44.666Z,86.45
2018-11-10T21:42:12.399Z,85.48
2018-11-10T21:44:40.114Z,87.56
2018-11-10T21:47:07.838Z,87.09
2018-11-10T21:49:35.615Z,86.77
2018-11-10T21:52:03.363Z,86.49
2018-11-10T21:54:31.092Z,85.75
2018-11-10T21:56:58.873Z,86.55
2018-11-10T21:59:26.606Z,87.71
2018-11-10T22:01:54.326Z,88.18
2018-11-10T22:04:22.049Z,89.26
2018-11-10T22:06:49.863Z,86.17
2018-11-10T22:09:17.773Z,85.75
2018-11-10T22:11:45.401Z,87.61
2018-11-10T22:14:13.161Z,86.85
2018-11-10T22:16:40.891Z,86.86
2018-11-10T22:19:08.633Z,86.87
2018-11-10T22:21:36.386Z,86.35
2018-11-10T22:24:04.221Z,86.65
2018-11-10T22:26:31.968Z,87.95
2018-11-10T22:28:59.705Z,85.66
2018-11-10T22:31:27.486Z,85.09
2018-11-10T22:33:55.252Z,85.30
2018-11-10T22:36:23.037Z,85.99
2018-11-10T22:38:50.774Z,86.25
2018-11-10T22:41:18.521Z,86.24
2018-11-10T22:43:46.246Z,85.53
2018-11-10T22:46:14.333Z,84.52
2018-11-10T22:48:42.143Z,84.80
2018-11-10T22:51:09.882Z,84.69
2018-11-10T22:53:37.807Z,85.08
2018-11-10T22:56:05.733Z,85.18
2018-11-10T22:58:33.459Z,84.87
2018-11-10T23:01:06.234Z,85.39
2018-11-10T23:03:34.760Z,86.24
2018-11-10T23:06:02.549Z,86.56
2018-11-10T23:08:30.342Z,86.13
2018-11-10T23:10:58.094Z,86.17
2018-11-10T23:13:25.809Z,85.68
2018-11-10T23:15:53.558Z,85.59
2018-11-10T23:18:21.302Z,86.17
2018-11-10T23:20:49.018Z,85.01
2018-11-10T23:23:16.775Z,84.37
2018-11-10T23:25:44.518Z,84.52
2018-11-10T23:28:12.242Z,85.36
2018-11-10T23:30:39.979Z,85.11
2018-11-10T23:33:07.709Z,85.24
2018-11-10T23:35:35.435Z,85.39
2018-11-10T23:38:03.167Z,85.13
2018-11-10T23:40:30.923Z,85.75
2018-11-10T23:42:58.654Z,85.73
2018-11-10T23:45:26.435Z,85.84
2018-11-10T23:47:54.171Z,85.19
2018-11-10T23:50:21.908Z,85.58
2018-11-10T23:52:49.637Z,85.26
2018-11-10T23:55:17.490Z,84.40
2018-11-10T23:57:45.307Z,84.75
